sensor_id;sensor_type;location;lat;lon;timestamp;P1;durP1;ratioP1;P2;durP2;ratioP2
12356;SDS011;6243;51.244;6.774;2023-04-06T00:00:34;9.10;;;6.53;;
12356;SDS011;6243;51.244;6.774;2023-04-06T00:02:59;10.57;;;7.50;;
12356;SDS011;6243;51.244;6.774;2023-04-06T00:05:26;10.07;;;7.07;;
12356;SDS011;6243;51.244;6.774;2023-04-06T00:07:51;11.33;;;7.57;;
12356;SDS011;6243;51.244;6.774;2023-04-06T00:10:17;10.50;;;7.23;;
12356;SDS011;6243;51.244;6.774;2023-04-06T00:12:43;8.03;;;6.47;;
12356;SDS011;6243;51.244;6.774;2023-04-06T00:15:08;11.53;;;7.30;;
12356;SDS011;6243;51.244;6.774;2023-04-06T00:17:35;8.27;;;7.23;;
12356;SDS011;6243;51.244;6.774;2023-04-06T00:20:00;8.03;;;6.60;;
12356;SDS011;6243;51.244;6.774;2023-04-06T00:22:27;9.17;;;6.83;;
12356;SDS011;6243;51.244;6.774;2023-04-06T00:24:52;9.10;;;7.03;;
12356;SDS011;6243;51.244;6.774;2023-04-06T00:27:18;10.03;;;7.60;;
12356;SDS011;6243;51.244;6.774;2023-04-06T00:29:43;9.10;;;7.47;;
12356;SDS011;6243;51.244;6.774;2023-04-06T00:32:09;10.50;;;7.27;;
12356;SDS011;6243;51.244;6.774;2023-04-06T00:34:34;9.77;;;7.47;;
12356;SDS011;6243;51.244;6.774;2023-04-06T00:37:00;9.83;;;7.20;;
12356;SDS011;6243;51.244;6.774;2023-04-06T00:39:27;10.07;;;7.40;;
12356;SDS011;6243;51.244;6.774;2023-04-06T00:41:52;10.43;;;7.37;;
12356;SDS011;6243;51.244;6.774;2023-04-06T00:44:18;8.47;;;6.80;;
12356;SDS011;6243;51.244;6.774;2023-04-06T00:46:44;9.23;;;7.07;;
12356;SDS011;6243;51.244;6.774;2023-04-06T00:49:10;9.53;;;6.80;;
12356;SDS011;6243;51.244;6.774;2023-04-06T00:51:36;8.63;;;6.80;;
12356;SDS011;6243;51.244;6.774;2023-04-06T00:54:01;8.67;;;7.30;;
12356;SDS011;6243;51.244;6.774;2023-04-06T00:56:28;11.43;;;7.50;;
12356;SDS011;6243;51.244;6.774;2023-04-06T00:58:54;10.80;;;7.47;;
12356;SDS011;6243;51.244;6.774;2023-04-06T01:01:19;11.37;;;7.77;;
12356;SDS011;6243;51.244;6.774;2023-04-06T01:03:45;8.50;;;7.30;;
12356;SDS011;6243;51.244;6.774;2023-04-06T01:06:10;10.43;;;7.97;;
12356;SDS011;6243;51.244;6.774;2023-04-06T01:08:36;12.07;;;8.90;;
12356;SDS011;6243;51.244;6.774;2023-04-06T01:11:01;13.30;;;8.97;;
12356;SDS011;6243;51.244;6.774;2023-04-06T01:13:28;14.43;;;8.93;;
12356;SDS011;6243;51.244;6.774;2023-04-06T01:15:54;12.40;;;9.70;;
12356;SDS011;6243;51.244;6.774;2023-04-06T01:18:24;13.07;;;9.47;;
12356;SDS011;6243;51.244;6.774;2023-04-06T01:20:50;13.40;;;9.30;;
12356;SDS011;6243;51.244;6.774;2023-04-06T01:23:17;13.70;;;9.43;;
12356;SDS011;6243;51.244;6.774;2023-04-06T01:25:43;11.83;;;9.40;;
12356;SDS011;6243;51.244;6.774;2023-04-06T01:28:08;16.33;;;9.90;;
12356;SDS011;6243;51.244;6.774;2023-04-06T01:30:34;14.77;;;9.37;;
12356;SDS011;6243;51.244;6.774;2023-04-06T01:32:59;13.17;;;9.90;;
12356;SDS011;6243;51.244;6.774;2023-04-06T01:35:25;11.83;;;9.63;;
12356;SDS011;6243;51.244;6.774;2023-04-06T01:37:51;14.93;;;9.80;;
12356;SDS011;6243;51.244;6.774;2023-04-06T01:40:18;12.27;;;9.57;;
12356;SDS011;6243;51.244;6.774;2023-04-06T01:42:44;12.17;;;9.60;;
12356;SDS011;6243;51.244;6.774;2023-04-06T01:45:09;12.67;;;9.73;;
12356;SDS011;6243;51.244;6.774;2023-04-06T01:47:35;15.87;;;9.63;;
12356;SDS011;6243;51.244;6.774;2023-04-06T01:50:00;13.07;;;9.97;;
12356;SDS011;6243;51.244;6.774;2023-04-06T01:52:26;12.57;;;9.30;;
12356;SDS011;6243;51.244;6.774;2023-04-06T01:54:51;12.67;;;9.53;;
12356;SDS011;6243;51.244;6.774;2023-04-06T01:57:18;14.17;;;9.77;;
12356;SDS011;6243;51.244;6.774;2023-04-06T01:59:44;11.93;;;9.63;;
12356;SDS011;6243;51.244;6.774;2023-04-06T02:02:09;13.53;;;9.97;;
12356;SDS011;6243;51.244;6.774;2023-04-06T02:04:35;12.00;;;8.80;;
12356;SDS011;6243;51.244;6.774;2023-04-06T02:07:00;11.90;;;9.30;;
12356;SDS011;6243;51.244;6.774;2023-04-06T02:09:26;10.13;;;9.10;;
12356;SDS011;6243;51.244;6.774;2023-04-06T02:11:51;11.13;;;9.13;;
12356;SDS011;6243;51.244;6.774;2023-04-06T02:14:18;12.60;;;9.73;;
12356;SDS011;6243;51.244;6.774;2023-04-06T02:16:43;14.13;;;9.80;;
12356;SDS011;6243;51.244;6.774;2023-04-06T02:19:09;11.43;;;9.27;;
12356;SDS011;6243;51.244;6.774;2023-04-06T02:21:34;14.77;;;10.23;;
12356;SDS011;6243;51.244;6.774;2023-04-06T02:24:00;12.53;;;9.90;;
12356;SDS011;6243;51.244;6.774;2023-04-06T02:26:25;11.60;;;9.47;;
12356;SDS011;6243;51.244;6.774;2023-04-06T02:28:51;16.10;;;9.80;;
12356;SDS011;6243;51.244;6.774;2023-04-06T02:31:17;14.47;;;9.73;;
12356;SDS011;6243;51.244;6.774;2023-04-06T02:33:43;13.03;;;10.40;;
12356;SDS011;6243;51.244;6.774;2023-04-06T02:36:08;13.50;;;10.00;;
12356;SDS011;6243;51.244;6.774;2023-04-06T02:38:34;13.73;;;10.00;;
12356;SDS011;6243;51.244;6.774;2023-04-06T02:40:59;12.67;;;10.20;;
12356;SDS011;6243;51.244;6.774;2023-04-06T02:43:25;14.07;;;9.17;;
12356;SDS011;6243;51.244;6.774;2023-04-06T02:45:50;13.70;;;9.70;;
12356;SDS011;6243;51.244;6.774;2023-04-06T02:48:17;16.90;;;9.53;;
12356;SDS011;6243;51.244;6.774;2023-04-06T02:50:43;13.63;;;9.37;;
12356;SDS011;6243;51.244;6.774;2023-04-06T02:53:08;13.33;;;9.20;;
12356;SDS011;6243;51.244;6.774;2023-04-06T02:55:34;11.47;;;9.40;;
12356;SDS011;6243;51.244;6.774;2023-04-06T02:57:59;13.17;;;9.03;;
12356;SDS011;6243;51.244;6.774;2023-04-06T03:00:25;11.80;;;9.03;;
12356;SDS011;6243;51.244;6.774;2023-04-06T03:02:50;10.30;;;8.37;;
12356;SDS011;6243;51.244;6.774;2023-04-06T03:05:17;11.77;;;9.53;;
12356;SDS011;6243;51.244;6.774;2023-04-06T03:07:43;12.20;;;8.97;;
12356;SDS011;6243;51.244;6.774;2023-04-06T03:10:08;11.73;;;8.77;;
12356;SDS011;6243;51.244;6.774;2023-04-06T03:12:34;11.10;;;9.00;;
12356;SDS011;6243;51.244;6.774;2023-04-06T03:15:00;11.27;;;8.50;;
12356;SDS011;6243;51.244;6.774;2023-04-06T03:17:25;12.23;;;8.50;;
12356;SDS011;6243;51.244;6.774;2023-04-06T03:19:51;10.17;;;8.53;;
12356;SDS011;6243;51.244;6.774;2023-04-06T03:22:18;10.10;;;8.30;;
12356;SDS011;6243;51.244;6.774;2023-04-06T03:24:44;12.50;;;8.33;;
12356;SDS011;6243;51.244;6.774;2023-04-06T03:27:10;11.57;;;8.17;;
12356;SDS011;6243;51.244;6.774;2023-04-06T03:29:35;10.30;;;8.60;;
12356;SDS011;6243;51.244;6.774;2023-04-06T03:32:01;12.17;;;8.57;;
12356;SDS011;6243;51.244;6.774;2023-04-06T03:34:26;10.43;;;7.90;;
12356;SDS011;6243;51.244;6.774;2023-04-06T03:36:52;11.03;;;8.40;;
12356;SDS011;6243;51.244;6.774;2023-04-06T03:39:18;10.97;;;8.40;;
12356;SDS011;6243;51.244;6.774;2023-04-06T03:41:44;11.73;;;7.73;;
12356;SDS011;6243;51.244;6.774;2023-04-06T03:44:09;7.67;;;6.83;;
12356;SDS011;6243;51.244;6.774;2023-04-06T03:46:35;11.47;;;7.93;;
12356;SDS011;6243;51.244;6.774;2023-04-06T03:49:01;8.93;;;7.57;;
12356;SDS011;6243;51.244;6.774;2023-04-06T03:51:26;9.37;;;7.80;;
12356;SDS011;6243;51.244;6.774;2023-04-06T03:53:52;9.23;;;7.70;;
12356;SDS011;6243;51.244;6.774;2023-04-06T03:56:19;8.03;;;6.97;;
12356;SDS011;6243;51.244;6.774;2023-04-06T03:58:44;10.77;;;8.00;;
12356;SDS011;6243;51.244;6.774;2023-04-06T04:01:10;8.63;;;6.90;;
12356;SDS011;6243;51.244;6.774;2023-04-06T04:03:35;9.70;;;7.93;;
12356;SDS011;6243;51.244;6.774;2023-04-06T04:06:01;10.87;;;7.40;;
12356;SDS011;6243;51.244;6.774;2023-04-06T04:08:27;9.67;;;8.03;;
12356;SDS011;6243;51.244;6.774;2023-04-06T04:10:52;10.50;;;7.73;;
12356;SDS011;6243;51.244;6.774;2023-04-06T04:13:19;11.67;;;7.67;;
12356;SDS011;6243;51.244;6.774;2023-04-06T04:15:45;10.70;;;8.33;;
12356;SDS011;6243;51.244;6.774;2023-04-06T04:18:10;8.87;;;8.00;;
12356;SDS011;6243;51.244;6.774;2023-04-06T04:20:36;9.57;;;7.10;;
12356;SDS011;6243;51.244;6.774;2023-04-06T04:23:01;9.93;;;7.63;;
12356;SDS011;6243;51.244;6.774;2023-04-06T04:25:27;9.33;;;7.63;;
12356;SDS011;6243;51.244;6.774;2023-04-06T04:27:52;9.20;;;7.97;;
12356;SDS011;6243;51.244;6.774;2023-04-06T04:30:19;10.17;;;7.27;;
12356;SDS011;6243;51.244;6.774;2023-04-06T04:32:45;9.80;;;7.63;;
12356;SDS011;6243;51.244;6.774;2023-04-06T04:35:10;10.50;;;7.60;;
12356;SDS011;6243;51.244;6.774;2023-04-06T04:37:35;10.30;;;7.13;;
12356;SDS011;6243;51.244;6.774;2023-04-06T04:40:01;10.93;;;7.47;;
12356;SDS011;6243;51.244;6.774;2023-04-06T04:42:26;10.63;;;7.50;;
12356;SDS011;6243;51.244;6.774;2023-04-06T04:44:52;12.33;;;7.57;;
12356;SDS011;6243;51.244;6.774;2023-04-06T04:47:19;11.07;;;7.70;;
12356;SDS011;6243;51.244;6.774;2023-04-06T04:49:44;11.93;;;8.13;;
12356;SDS011;6243;51.244;6.774;2023-04-06T04:52:10;9.43;;;7.40;;
12356;SDS011;6243;51.244;6.774;2023-04-06T04:54:35;9.83;;;7.00;;
12356;SDS011;6243;51.244;6.774;2023-04-06T04:57:01;9.07;;;6.80;;
12356;SDS011;6243;51.244;6.774;2023-04-06T04:59:26;10.70;;;7.43;;
12356;SDS011;6243;51.244;6.774;2023-04-06T05:01:52;10.70;;;7.87;;
12356;SDS011;6243;51.244;6.774;2023-04-06T05:04:19;11.27;;;8.10;;
12356;SDS011;6243;51.244;6.774;2023-04-06T05:06:44;8.90;;;7.40;;
12356;SDS011;6243;51.244;6.774;2023-04-06T05:09:10;12.60;;;7.60;;
12356;SDS011;6243;51.244;6.774;2023-04-06T05:11:35;10.30;;;7.83;;
12356;SDS011;6243;51.244;6.774;2023-04-06T05:14:01;10.80;;;7.30;;
12356;SDS011;6243;51.244;6.774;2023-04-06T05:16:26;13.10;;;7.63;;
12356;SDS011;6243;51.244;6.774;2023-04-06T05:18:52;11.20;;;7.80;;
12356;SDS011;6243;51.244;6.774;2023-04-06T05:21:19;10.27;;;7.23;;
12356;SDS011;6243;51.244;6.774;2023-04-06T05:23:44;9.43;;;7.10;;
12356;SDS011;6243;51.244;6.774;2023-04-06T05:26:09;10.10;;;7.30;;
12356;SDS011;6243;51.244;6.774;2023-04-06T05:28:35;9.77;;;6.60;;
12356;SDS011;6243;51.244;6.774;2023-04-06T05:31:01;11.03;;;7.40;;
12356;SDS011;6243;51.244;6.774;2023-04-06T05:33:26;8.13;;;6.87;;
12356;SDS011;6243;51.244;6.774;2023-04-06T05:35:52;7.07;;;6.37;;
12356;SDS011;6243;51.244;6.774;2023-04-06T05:38:19;10.87;;;6.67;;
12356;SDS011;6243;51.244;6.774;2023-04-06T05:40:44;9.17;;;6.80;;
12356;SDS011;6243;51.244;6.774;2023-04-06T05:43:10;8.53;;;6.93;;
12356;SDS011;6243;51.244;6.774;2023-04-06T05:45:35;8.30;;;6.80;;
12356;SDS011;6243;51.244;6.774;2023-04-06T05:48:01;10.00;;;7.27;;
12356;SDS011;6243;51.244;6.774;2023-04-06T05:50:26;9.03;;;7.13;;
12356;SDS011;6243;51.244;6.774;2023-04-06T05:52:52;8.43;;;6.63;;
12356;SDS011;6243;51.244;6.774;2023-04-06T05:55:19;12.20;;;7.30;;
12356;SDS011;6243;51.244;6.774;2023-04-06T05:57:44;8.70;;;7.37;;
12356;SDS011;6243;51.244;6.774;2023-04-06T06:00:10;10.13;;;6.73;;
12356;SDS011;6243;51.244;6.774;2023-04-06T06:02:36;8.70;;;6.57;;
12356;SDS011;6243;51.244;6.774;2023-04-06T06:05:02;9.77;;;7.07;;
12356;SDS011;6243;51.244;6.774;2023-04-06T06:07:28;10.03;;;6.57;;
12356;SDS011;6243;51.244;6.774;2023-04-06T06:09:55;8.57;;;6.87;;
12356;SDS011;6243;51.244;6.774;2023-04-06T06:12:23;8.90;;;6.87;;
12356;SDS011;6243;51.244;6.774;2023-04-06T06:14:49;7.50;;;6.00;;
12356;SDS011;6243;51.244;6.774;2023-04-06T06:17:14;8.67;;;6.40;;
12356;SDS011;6243;51.244;6.774;2023-04-06T06:19:40;9.40;;;6.57;;
12356;SDS011;6243;51.244;6.774;2023-04-06T06:22:05;10.40;;;6.53;;
12356;SDS011;6243;51.244;6.774;2023-04-06T06:24:31;9.93;;;6.63;;
12356;SDS011;6243;51.244;6.774;2023-04-06T06:26:56;9.13;;;6.80;;
12356;SDS011;6243;51.244;6.774;2023-04-06T06:29:23;8.47;;;7.03;;
12356;SDS011;6243;51.244;6.774;2023-04-06T06:31:49;8.83;;;7.40;;
12356;SDS011;6243;51.244;6.774;2023-04-06T06:34:14;8.37;;;6.90;;
12356;SDS011;6243;51.244;6.774;2023-04-06T06:36:40;9.67;;;7.27;;
12356;SDS011;6243;51.244;6.774;2023-04-06T06:39:05;9.17;;;6.87;;
12356;SDS011;6243;51.244;6.774;2023-04-06T06:41:31;9.30;;;7.37;;
12356;SDS011;6243;51.244;6.774;2023-04-06T06:43:56;9.27;;;7.33;;
12356;SDS011;6243;51.244;6.774;2023-04-06T06:46:23;9.23;;;6.67;;
12356;SDS011;6243;51.244;6.774;2023-04-06T06:48:49;9.97;;;6.87;;
12356;SDS011;6243;51.244;6.774;2023-04-06T06:51:14;8.47;;;7.47;;
12356;SDS011;6243;51.244;6.774;2023-04-06T06:53:40;9.67;;;7.17;;
12356;SDS011;6243;51.244;6.774;2023-04-06T06:56:05;8.93;;;7.17;;
12356;SDS011;6243;51.244;6.774;2023-04-06T06:58:31;10.63;;;7.63;;
12356;SDS011;6243;51.244;6.774;2023-04-06T07:00:57;9.13;;;7.03;;
12356;SDS011;6243;51.244;6.774;2023-04-06T07:03:24;10.60;;;7.40;;
12356;SDS011;6243;51.244;6.774;2023-04-06T07:05:50;10.30;;;7.40;;
12356;SDS011;6243;51.244;6.774;2023-04-06T07:08:16;9.70;;;7.43;;
12356;SDS011;6243;51.244;6.774;2023-04-06T07:10:41;11.20;;;7.60;;
12356;SDS011;6243;51.244;6.774;2023-04-06T07:13:07;10.53;;;7.50;;
12356;SDS011;6243;51.244;6.774;2023-04-06T07:15:32;8.67;;;7.30;;
12356;SDS011;6243;51.244;6.774;2023-04-06T07:17:58;9.93;;;7.50;;
12356;SDS011;6243;51.244;6.774;2023-04-06T07:20:25;10.23;;;7.90;;
12356;SDS011;6243;51.244;6.774;2023-04-06T07:22:51;10.63;;;7.37;;
12356;SDS011;6243;51.244;6.774;2023-04-06T07:25:16;12.30;;;7.50;;
12356;SDS011;6243;51.244;6.774;2023-04-06T07:27:42;11.47;;;7.23;;
12356;SDS011;6243;51.244;6.774;2023-04-06T07:30:08;10.67;;;7.10;;
12356;SDS011;6243;51.244;6.774;2023-04-06T07:32:33;10.00;;;6.93;;
12356;SDS011;6243;51.244;6.774;2023-04-06T07:34:59;11.37;;;8.10;;
12356;SDS011;6243;51.244;6.774;2023-04-06T07:37:26;8.93;;;7.03;;
12356;SDS011;6243;51.244;6.774;2023-04-06T07:39:51;8.40;;;7.50;;
12356;SDS011;6243;51.244;6.774;2023-04-06T07:42:17;11.17;;;7.47;;
12356;SDS011;6243;51.244;6.774;2023-04-06T07:44:42;11.57;;;7.93;;
12356;SDS011;6243;51.244;6.774;2023-04-06T07:47:08;10.83;;;7.53;;
12356;SDS011;6243;51.244;6.774;2023-04-06T07:49:33;11.73;;;7.97;;
12356;SDS011;6243;51.244;6.774;2023-04-06T07:51:59;11.07;;;7.80;;
12356;SDS011;6243;51.244;6.774;2023-04-06T07:54:25;9.33;;;7.80;;
12356;SDS011;6243;51.244;6.774;2023-04-06T07:56:51;12.00;;;8.63;;
12356;SDS011;6243;51.244;6.774;2023-04-06T07:59:16;13.33;;;8.20;;
12356;SDS011;6243;51.244;6.774;2023-04-06T08:01:42;10.43;;;8.60;;
12356;SDS011;6243;51.244;6.774;2023-04-06T08:04:07;11.63;;;8.33;;
12356;SDS011;6243;51.244;6.774;2023-04-06T08:06:33;10.57;;;8.87;;
12356;SDS011;6243;51.244;6.774;2023-04-06T08:08:58;12.80;;;8.63;;
12356;SDS011;6243;51.244;6.774;2023-04-06T08:11:25;9.77;;;8.30;;
12356;SDS011;6243;51.244;6.774;2023-04-06T08:13:51;14.00;;;8.60;;
12356;SDS011;6243;51.244;6.774;2023-04-06T08:16:16;10.30;;;8.17;;
12356;SDS011;6243;51.244;6.774;2023-04-06T08:18:42;10.23;;;8.40;;
12356;SDS011;6243;51.244;6.774;2023-04-06T08:21:08;9.93;;;7.93;;
12356;SDS011;6243;51.244;6.774;2023-04-06T08:23:33;12.37;;;8.50;;
12356;SDS011;6243;51.244;6.774;2023-04-06T08:25:59;10.03;;;8.30;;
12356;SDS011;6243;51.244;6.774;2023-04-06T08:28:26;11.73;;;8.73;;
12356;SDS011;6243;51.244;6.774;2023-04-06T08:30:51;10.23;;;8.33;;
12356;SDS011;6243;51.244;6.774;2023-04-06T08:33:17;9.63;;;8.50;;
12356;SDS011;6243;51.244;6.774;2023-04-06T08:35:42;10.47;;;8.50;;
12356;SDS011;6243;51.244;6.774;2023-04-06T08:38:08;11.93;;;8.17;;
12356;SDS011;6243;51.244;6.774;2023-04-06T08:40:35;12.50;;;8.70;;
12356;SDS011;6243;51.244;6.774;2023-04-06T08:43:02;11.90;;;8.93;;
12356;SDS011;6243;51.244;6.774;2023-04-06T08:45:32;12.77;;;8.90;;
12356;SDS011;6243;51.244;6.774;2023-04-06T08:47:58;12.57;;;9.50;;
12356;SDS011;6243;51.244;6.774;2023-04-06T08:50:25;13.70;;;9.17;;
12356;SDS011;6243;51.244;6.774;2023-04-06T08:52:51;12.83;;;9.50;;
12356;SDS011;6243;51.244;6.774;2023-04-06T08:55:17;12.73;;;10.20;;
12356;SDS011;6243;51.244;6.774;2023-04-06T08:57:43;13.70;;;9.43;;
12356;SDS011;6243;51.244;6.774;2023-04-06T09:00:11;15.70;;;10.07;;
12356;SDS011;6243;51.244;6.774;2023-04-06T09:02:39;18.20;;;9.60;;
12356;SDS011;6243;51.244;6.774;2023-04-06T09:05:08;14.60;;;9.50;;
12356;SDS011;6243;51.244;6.774;2023-04-06T09:07:34;12.27;;;9.63;;
12356;SDS011;6243;51.244;6.774;2023-04-06T09:10:00;14.00;;;10.17;;
12356;SDS011;6243;51.244;6.774;2023-04-06T09:12:26;13.37;;;10.03;;
12356;SDS011;6243;51.244;6.774;2023-04-06T09:14:52;14.37;;;10.73;;
12356;SDS011;6243;51.244;6.774;2023-04-06T09:17:21;12.63;;;9.70;;
12356;SDS011;6243;51.244;6.774;2023-04-06T09:19:49;16.53;;;10.83;;
12356;SDS011;6243;51.244;6.774;2023-04-06T09:22:14;18.47;;;10.83;;
12356;SDS011;6243;51.244;6.774;2023-04-06T09:24:41;14.63;;;10.67;;
12356;SDS011;6243;51.244;6.774;2023-04-06T09:27:07;16.13;;;10.77;;
12356;SDS011;6243;51.244;6.774;2023-04-06T09:29:33;14.13;;;9.77;;
12356;SDS011;6243;51.244;6.774;2023-04-06T09:32:02;17.33;;;11.33;;
12356;SDS011;6243;51.244;6.774;2023-04-06T09:34:29;12.13;;;10.03;;
12356;SDS011;6243;51.244;6.774;2023-04-06T09:36:56;15.30;;;11.07;;
12356;SDS011;6243;51.244;6.774;2023-04-06T09:39:21;20.10;;;11.40;;
12356;SDS011;6243;51.244;6.774;2023-04-06T09:41:49;14.00;;;11.33;;
12356;SDS011;6243;51.244;6.774;2023-04-06T09:44:16;18.20;;;11.20;;
12356;SDS011;6243;51.244;6.774;2023-04-06T09:46:41;16.03;;;11.43;;
12356;SDS011;6243;51.244;6.774;2023-04-06T09:49:08;13.83;;;10.57;;
12356;SDS011;6243;51.244;6.774;2023-04-06T09:51:36;14.67;;;10.77;;
12356;SDS011;6243;51.244;6.774;2023-04-06T09:54:04;14.00;;;10.43;;
12356;SDS011;6243;51.244;6.774;2023-04-06T09:56:32;15.03;;;10.63;;
12356;SDS011;6243;51.244;6.774;2023-04-06T09:59:05;16.57;;;10.97;;
12356;SDS011;6243;51.244;6.774;2023-04-06T10:01:36;16.20;;;10.63;;
12356;SDS011;6243;51.244;6.774;2023-04-06T10:04:05;17.93;;;11.10;;
12356;SDS011;6243;51.244;6.774;2023-04-06T10:06:42;14.27;;;10.73;;
12356;SDS011;6243;51.244;6.774;2023-04-06T10:09:11;15.07;;;11.13;;
12356;SDS011;6243;51.244;6.774;2023-04-06T10:11:37;15.47;;;11.23;;
12356;SDS011;6243;51.244;6.774;2023-04-06T10:14:03;18.27;;;11.53;;
12356;SDS011;6243;51.244;6.774;2023-04-06T10:16:29;15.30;;;11.40;;
12356;SDS011;6243;51.244;6.774;2023-04-06T10:18:56;14.57;;;11.00;;
12356;SDS011;6243;51.244;6.774;2023-04-06T10:21:26;15.97;;;12.00;;
12356;SDS011;6243;51.244;6.774;2023-04-06T10:23:55;16.83;;;12.03;;
12356;SDS011;6243;51.244;6.774;2023-04-06T10:26:25;16.53;;;12.17;;
12356;SDS011;6243;51.244;6.774;2023-04-06T10:28:51;16.40;;;12.63;;
12356;SDS011;6243;51.244;6.774;2023-04-06T10:31:23;17.17;;;11.93;;
12356;SDS011;6243;51.244;6.774;2023-04-06T10:33:53;16.73;;;12.23;;
12356;SDS011;6243;51.244;6.774;2023-04-06T10:36:21;14.83;;;11.63;;
12356;SDS011;6243;51.244;6.774;2023-04-06T10:38:53;15.77;;;11.77;;
12356;SDS011;6243;51.244;6.774;2023-04-06T10:41:19;15.67;;;11.63;;
12356;SDS011;6243;51.244;6.774;2023-04-06T10:43:54;15.63;;;11.27;;
12356;SDS011;6243;51.244;6.774;2023-04-06T10:46:24;17.53;;;11.67;;
12356;SDS011;6243;51.244;6.774;2023-04-06T10:48:50;15.93;;;11.50;;
12356;SDS011;6243;51.244;6.774;2023-04-06T10:51:16;16.43;;;10.87;;
12356;SDS011;6243;51.244;6.774;2023-04-06T10:53:43;17.97;;;12.00;;
12356;SDS011;6243;51.244;6.774;2023-04-06T10:56:10;16.17;;;11.93;;
12356;SDS011;6243;51.244;6.774;2023-04-06T10:58:36;15.17;;;10.67;;
12356;SDS011;6243;51.244;6.774;2023-04-06T11:01:03;16.33;;;11.67;;
12356;SDS011;6243;51.244;6.774;2023-04-06T11:03:29;19.23;;;11.83;;
12356;SDS011;6243;51.244;6.774;2023-04-06T11:05:55;15.33;;;10.30;;
12356;SDS011;6243;51.244;6.774;2023-04-06T11:08:24;16.30;;;11.40;;
12356;SDS011;6243;51.244;6.774;2023-04-06T11:10:51;17.37;;;12.77;;
12356;SDS011;6243;51.244;6.774;2023-04-06T11:13:17;15.30;;;10.73;;
12356;SDS011;6243;51.244;6.774;2023-04-06T11:15:42;14.97;;;11.03;;
12356;SDS011;6243;51.244;6.774;2023-04-06T11:18:09;16.83;;;12.13;;
12356;SDS011;6243;51.244;6.774;2023-04-06T11:20:35;15.10;;;11.70;;
12356;SDS011;6243;51.244;6.774;2023-04-06T11:23:01;16.37;;;11.37;;
12356;SDS011;6243;51.244;6.774;2023-04-06T11:25:26;14.37;;;11.07;;
12356;SDS011;6243;51.244;6.774;2023-04-06T11:27:52;17.60;;;11.23;;
12356;SDS011;6243;51.244;6.774;2023-04-06T11:30:17;16.37;;;12.50;;
12356;SDS011;6243;51.244;6.774;2023-04-06T11:32:44;15.00;;;11.20;;
12356;SDS011;6243;51.244;6.774;2023-04-06T11:35:20;12.73;;;10.50;;
12356;SDS011;6243;51.244;6.774;2023-04-06T11:37:47;14.77;;;10.80;;
12356;SDS011;6243;51.244;6.774;2023-04-06T11:40:14;15.57;;;10.23;;
12356;SDS011;6243;51.244;6.774;2023-04-06T11:42:39;15.47;;;9.93;;
12356;SDS011;6243;51.244;6.774;2023-04-06T11:45:06;18.20;;;10.43;;
12356;SDS011;6243;51.244;6.774;2023-04-06T11:47:33;13.60;;;10.00;;
12356;SDS011;6243;51.244;6.774;2023-04-06T11:50:05;13.83;;;10.77;;
12356;SDS011;6243;51.244;6.774;2023-04-06T11:52:33;14.00;;;10.23;;
12356;SDS011;6243;51.244;6.774;2023-04-06T11:55:09;15.27;;;10.70;;
12356;SDS011;6243;51.244;6.774;2023-04-06T11:57:36;13.50;;;10.43;;
12356;SDS011;6243;51.244;6.774;2023-04-06T12:00:02;14.17;;;11.20;;
12356;SDS011;6243;51.244;6.774;2023-04-06T12:02:27;18.50;;;10.90;;
12356;SDS011;6243;51.244;6.774;2023-04-06T12:04:53;15.57;;;10.70;;
12356;SDS011;6243;51.244;6.774;2023-04-06T12:07:18;15.70;;;10.77;;
12356;SDS011;6243;51.244;6.774;2023-04-06T12:09:45;12.63;;;9.77;;
12356;SDS011;6243;51.244;6.774;2023-04-06T12:12:12;14.80;;;11.13;;
12356;SDS011;6243;51.244;6.774;2023-04-06T12:14:37;13.97;;;11.20;;
12356;SDS011;6243;51.244;6.774;2023-04-06T12:17:03;15.93;;;11.97;;
12356;SDS011;6243;51.244;6.774;2023-04-06T12:19:28;12.37;;;10.10;;
12356;SDS011;6243;51.244;6.774;2023-04-06T12:21:54;15.37;;;10.90;;
12356;SDS011;6243;51.244;6.774;2023-04-06T12:24:19;13.00;;;10.63;;
12356;SDS011;6243;51.244;6.774;2023-04-06T12:26:46;13.00;;;9.63;;
12356;SDS011;6243;51.244;6.774;2023-04-06T12:29:12;11.93;;;9.50;;
12356;SDS011;6243;51.244;6.774;2023-04-06T12:31:38;11.73;;;9.30;;
12356;SDS011;6243;51.244;6.774;2023-04-06T12:34:04;11.37;;;8.50;;
12356;SDS011;6243;51.244;6.774;2023-04-06T12:36:29;10.80;;;8.73;;
12356;SDS011;6243;51.244;6.774;2023-04-06T12:38:55;10.17;;;7.53;;
12356;SDS011;6243;51.244;6.774;2023-04-06T12:41:20;9.37;;;7.00;;
12356;SDS011;6243;51.244;6.774;2023-04-06T12:43:48;10.03;;;7.33;;
12356;SDS011;6243;51.244;6.774;2023-04-06T12:46:14;11.27;;;7.97;;
12356;SDS011;6243;51.244;6.774;2023-04-06T12:48:39;10.23;;;7.40;;
12356;SDS011;6243;51.244;6.774;2023-04-06T12:51:05;12.70;;;7.63;;
12356;SDS011;6243;51.244;6.774;2023-04-06T12:53:31;9.60;;;7.70;;
12356;SDS011;6243;51.244;6.774;2023-04-06T12:55:57;10.93;;;7.90;;
12356;SDS011;6243;51.244;6.774;2023-04-06T12:58:23;9.63;;;7.13;;
12356;SDS011;6243;51.244;6.774;2023-04-06T13:00:50;10.80;;;7.97;;
12356;SDS011;6243;51.244;6.774;2023-04-06T13:03:16;9.37;;;7.83;;
12356;SDS011;6243;51.244;6.774;2023-04-06T13:05:43;9.77;;;7.10;;
12356;SDS011;6243;51.244;6.774;2023-04-06T13:08:09;8.87;;;6.30;;
12356;SDS011;6243;51.244;6.774;2023-04-06T13:10:34;11.77;;;7.20;;
12356;SDS011;6243;51.244;6.774;2023-04-06T13:13:00;8.20;;;6.30;;
12356;SDS011;6243;51.244;6.774;2023-04-06T13:15:25;9.80;;;6.60;;
12356;SDS011;6243;51.244;6.774;2023-04-06T13:17:52;7.20;;;5.60;;
12356;SDS011;6243;51.244;6.774;2023-04-06T13:20:17;9.07;;;6.20;;
12356;SDS011;6243;51.244;6.774;2023-04-06T13:22:43;11.87;;;6.53;;
12356;SDS011;6243;51.244;6.774;2023-04-06T13:25:09;12.73;;;7.87;;
12356;SDS011;6243;51.244;6.774;2023-04-06T13:27:34;10.37;;;8.00;;
12356;SDS011;6243;51.244;6.774;2023-04-06T13:30:00;9.40;;;7.50;;
12356;SDS011;6243;51.244;6.774;2023-04-06T13:32:25;10.97;;;7.87;;
12356;SDS011;6243;51.244;6.774;2023-04-06T13:34:52;10.07;;;8.00;;
12356;SDS011;6243;51.244;6.774;2023-04-06T13:37:19;13.73;;;9.40;;
12356;SDS011;6243;51.244;6.774;2023-04-06T13:39:45;12.63;;;8.03;;
12356;SDS011;6243;51.244;6.774;2023-04-06T13:42:10;9.33;;;7.67;;
12356;SDS011;6243;51.244;6.774;2023-04-06T13:44:36;9.80;;;8.23;;
12356;SDS011;6243;51.244;6.774;2023-04-06T13:47:01;10.23;;;7.80;;
12356;SDS011;6243;51.244;6.774;2023-04-06T13:49:27;7.60;;;6.80;;
12356;SDS011;6243;51.244;6.774;2023-04-06T13:51:53;7.80;;;6.17;;
12356;SDS011;6243;51.244;6.774;2023-04-06T13:54:19;7.40;;;6.67;;
12356;SDS011;6243;51.244;6.774;2023-04-06T13:56:45;7.67;;;6.10;;
12356;SDS011;6243;51.244;6.774;2023-04-06T13:59:10;10.57;;;6.80;;
12356;SDS011;6243;51.244;6.774;2023-04-06T14:01:36;9.63;;;7.00;;
12356;SDS011;6243;51.244;6.774;2023-04-06T14:04:02;10.37;;;7.00;;
12356;SDS011;6243;51.244;6.774;2023-04-06T14:06:27;10.67;;;7.13;;
12356;SDS011;6243;51.244;6.774;2023-04-06T14:08:54;9.40;;;7.27;;
12356;SDS011;6243;51.244;6.774;2023-04-06T14:11:20;15.30;;;7.90;;
12356;SDS011;6243;51.244;6.774;2023-04-06T14:13:45;8.73;;;7.60;;
12356;SDS011;6243;51.244;6.774;2023-04-06T14:16:11;9.57;;;7.43;;
12356;SDS011;6243;51.244;6.774;2023-04-06T14:18:37;11.37;;;7.63;;
12356;SDS011;6243;51.244;6.774;2023-04-06T14:21:02;9.23;;;7.50;;
12356;SDS011;6243;51.244;6.774;2023-04-06T14:23:28;11.10;;;7.33;;
12356;SDS011;6243;51.244;6.774;2023-04-06T14:26:01;7.93;;;6.97;;
12356;SDS011;6243;51.244;6.774;2023-04-06T14:28:27;8.97;;;7.60;;
12356;SDS011;6243;51.244;6.774;2023-04-06T14:30:53;9.47;;;6.97;;
12356;SDS011;6243;51.244;6.774;2023-04-06T14:33:19;8.43;;;7.00;;
12356;SDS011;6243;51.244;6.774;2023-04-06T14:35:45;9.17;;;7.80;;
12356;SDS011;6243;51.244;6.774;2023-04-06T14:38:10;10.93;;;8.13;;
12356;SDS011;6243;51.244;6.774;2023-04-06T14:40:36;8.37;;;7.10;;